Terminal Aerodrome Forecast
Issued by NWS

Home | Current Version | Previous Version | Text Only | Print | Product List | Glossary On
Versions: 1 2 3 4 5 6 7 8 9 10 11 12 13 14 15 16 17 18
000
FTAK31 PAJN 281734
TAFAYA
TAF
PAYA 281734Z 2818/2918 11006KT 6SM -SHRA BR SCT015 OVC035
      TEMPO 2818/2821 5SM -SHSN BR BKN015 OVC025
     FM282200 11011KT 5SM -SHRA BR BKN012 OVC020
     FM290400 10008KT P6SM -SHRA OVC025 WS020/13030KT
     FM291200 11008KT 5SM -RA BR BKN015 OVC025 WS020/14035KT
      AMD LTD TO CLD VIS AND WIND 2901/2909=

USA.gov is the U.S. government's official web portal to all federal, state and local government web resources and services.